Time;durP1;ratioP1;P1;durP2;ratioP2;P2;SDS_P1;SDS_P2;PMS_P1;PMS_P2;Temp;Humidity;BMP_temperature;BMP_pressure;BME280_temperature;BME280_humidity;BME280_pressure;Samples;Min_cycle;Max_cycle;Signal;HPM_P1;HPM_P2
2021/03/05 00:00:31;;;;;;;23.77;14.32;;;;;;;5.26;100.00;95980.84;1023565;28;20087;-57
2021/03/05 00:01:01;;;;;;;26.77;13.38;;;;;;;5.28;100.00;95971.00;1023697;29;20026;-58
2021/03/05 00:01:33;;;;;;;25.83;14.77;;;;;;;5.27;100.00;95975.41;1019789;29;20020;-56
2021/03/05 00:02:04;;;;;;;23.05;13.35;;;;;;;5.29;100.00;95970.03;1023684;28;20026;-58
2021/03/05 00:02:35;;;;;;;25.90;13.98;;;;;;;5.22;100.00;95977.66;1023575;28;20015;-57
2021/03/05 00:03:06;;;;;;;23.35;15.02;;;;;;;5.27;100.00;95974.59;1023681;28;20044;-56
2021/03/05 00:03:37;;;;;;;24.95;14.02;;;;;;;5.27;100.00;95978.06;1019561;29;20024;-55
2021/03/05 00:04:08;;;;;;;22.58;14.32;;;;;;;5.26;100.00;95979.03;1019763;29;20024;-58
2021/03/05 00:04:39;;;;;;;22.42;13.00;;;;;;;5.25;100.00;95976.56;1027604;28;20105;-56
2021/03/05 00:05:10;;;;;;;23.95;13.10;;;;;;;5.27;100.00;95971.97;1019748;29;20019;-56
2021/03/05 00:05:41;;;;;;;21.23;12.68;;;;;;;5.27;100.00;95975.41;1019659;29;20024;-57
2021/03/05 00:06:12;;;;;;;22.02;12.95;;;;;;;5.24;100.00;95974.88;1023839;29;20019;-56
2021/03/05 00:06:43;;;;;;;20.27;13.00;;;;;;;5.25;100.00;95977.38;1019550;29;20110;-54
2021/03/05 00:07:14;;;;;;;25.08;12.98;;;;;;;5.23;100.00;95975.88;1027648;28;20110;-59
2021/03/05 00:07:45;;;;;;;21.50;13.27;;;;;;;5.24;100.00;95982.78;1019863;28;20462;-56
2021/03/05 00:08:16;;;;;;;26.63;13.55;;;;;;;5.25;100.00;95977.38;1023718;29;20025;-56
2021/03/05 00:08:47;;;;;;;22.40;13.23;;;;;;;5.22;100.00;95976.81;1019595;29;20031;-56
2021/03/05 00:09:18;;;;;;;23.40;12.30;;;;;;;5.21;100.00;95976.00;1027565;28;20404;-58
2021/03/05 00:09:48;;;;;;;21.83;13.10;;;;;;;5.24;100.00;95980.13;1023768;29;20035;-56
2021/03/05 00:10:23;;;;;;;20.48;12.10;;;;;;;5.25;100.00;95981.81;1023714;29;20114;-55
2021/03/05 00:10:54;;;;;;;18.67;11.93;;;;;;;5.23;100.00;95978.50;1023517;28;20027;-56
2021/03/05 00:11:25;;;;;;;22.42;12.70;;;;;;;5.20;100.00;95979.59;1015815;29;20038;-56
2021/03/05 00:11:55;;;;;;;18.88;12.32;;;;;;;5.21;100.00;95981.28;1015811;29;20030;-56
2021/03/05 00:12:26;;;;;;;19.38;11.35;;;;;;;5.21;100.00;95985.72;1027490;28;20019;-57
2021/03/05 00:12:57;;;;;;;18.20;11.73;;;;;;;5.21;100.00;95988.34;1027552;28;20034;-57
2021/03/05 00:13:28;;;;;;;22.92;11.15;;;;;;;5.18;100.00;95986.00;1023464;29;20085;-59
2021/03/05 00:13:58;;;;;;;19.85;11.13;;;;;;;5.18;100.00;95986.81;1015677;29;20039;-54
2021/03/05 00:14:29;;;;;;;20.02;11.95;;;;;;;5.20;100.00;95994.56;1023726;28;20015;-56
2021/03/05 00:15:00;;;;;;;24.88;11.60;;;;;;;5.20;100.00;95989.31;1019620;29;20028;-57
2021/03/05 00:15:33;;;;;;;18.35;11.50;;;;;;;5.18;100.00;95988.63;1019638;29;20520;-56
2021/03/05 00:16:04;;;;;;;19.40;11.77;;;;;;;5.18;100.00;95986.81;1023617;28;20234;-55
2021/03/05 00:16:35;;;;;;;25.63;12.50;;;;;;;5.19;100.00;95990.25;1023475;28;20536;-57
2021/03/05 00:17:50;;;;;;;20.95;12.00;;;;;;;5.20;100.00;95989.31;1019410;28;20149;-59
2021/03/05 00:18:20;;;;;;;24.88;12.93;;;;;;;5.20;100.00;95995.41;1025144;28;20405;-59
2021/03/05 00:18:51;;;;;;;21.45;12.90;;;;;;;5.21;100.00;95991.81;1023658;29;20127;-57
2021/03/05 00:19:22;;;;;;;19.42;12.68;;;;;;;5.21;100.00;95991.81;1021461;29;20465;-59
2021/03/05 00:19:53;;;;;;;21.95;11.60;;;;;;;5.21;100.00;95988.34;1031659;28;20117;-59
2021/03/05 00:20:25;;;;;;;19.63;11.82;;;;;;;5.21;100.00;95993.63;1029630;28;20073;-59
2021/03/05 00:20:56;;;;;;;20.75;11.63;;;;;;;5.19;100.00;95996.38;1023682;29;20031;-58
2021/03/05 00:21:26;;;;;;;20.05;11.13;;;;;;;5.18;100.00;95991.25;1027584;28;20113;-59
2021/03/05 00:21:57;;;;;;;18.88;11.07;;;;;;;5.14;100.00;95992.50;1031765;28;20018;-59
2021/03/05 00:22:28;;;;;;;20.30;12.43;;;;;;;5.09;100.00;95980.59;1031629;28;20420;-58
2021/03/05 00:22:59;;;;;;;20.42;12.32;;;;;;;5.19;100.00;95998.16;1023551;29;20023;-58
2021/03/05 00:23:29;;;;;;;22.67;11.93;;;;;;;5.18;100.00;95992.09;1019535;29;20507;-55
2021/03/05 00:24:00;;;;;;;18.60;10.73;;;;;;;5.18;100.00;95991.25;1019557;29;20028;-59
2021/03/05 00:24:31;;;;;;;22.80;12.52;;;;;;;5.16;100.00;95991.41;1027750;28;20047;-57
2021/03/05 00:25:02;;;;;;;16.58;10.50;;;;;;;5.18;100.00;95996.53;1015760;29;20020;-58
2021/03/05 00:25:33;;;;;;;17.35;10.68;;;;;;;5.18;100.00;95992.09;1023582;29;20374;-59
2021/03/05 00:26:04;;;;;;;18.38;10.38;;;;;;;5.16;100.00;95999.28;1023715;29;20047;-59
2021/03/05 00:26:35;;;;;;;19.50;12.10;;;;;;;5.14;100.00;95995.13;1023540;29;20031;-60
2021/03/05 00:27:08;;;;;;;19.65;11.02;;;;;;;5.15;100.00;95992.34;1027626;28;20022;-59
2021/03/05 00:27:39;;;;;;;17.50;10.18;;;;;;;5.14;100.00;95990.72;1027449;28;20011;-58
2021/03/05 00:28:10;;;;;;;17.92;10.70;;;;;;;5.15;100.00;95996.78;1023623;28;20019;-55
2021/03/05 00:28:40;;;;;;;19.15;11.38;;;;;;;5.12;100.00;95997.06;1027670;28;20109;-57
2021/03/05 00:29:11;;;;;;;16.33;10.55;;;;;;;5.12;100.00;95997.94;1015684;29;20024;-56
2021/03/05 00:29:41;;;;;;;19.38;11.30;;;;;;;5.13;100.00;96001.38;1023531;29;20023;-59
2021/03/05 00:30:13;;;;;;;21.05;11.85;;;;;;;5.12;100.00;95997.06;1015670;29;20020;-58
2021/03/05 00:30:43;;;;;;;16.13;10.35;;;;;;;5.13;100.00;95999.56;1019643;29;20019;-58
2021/03/05 00:31:14;;;;;;;17.80;11.45;;;;;;;5.11;100.00;95991.00;1023671;29;20414;-58
2021/03/05 00:31:45;;;;;;;19.00;10.75;;;;;;;5.03;100.00;95999.59;1019656;29;20031;-59
2021/03/05 00:32:15;;;;;;;16.92;10.98;;;;;;;5.12;100.00;95990.03;1023544;29;20081;-59
2021/03/05 00:32:46;;;;;;;20.65;11.98;;;;;;;5.14;100.00;95997.75;1023620;29;20129;-58
2021/03/05 00:33:17;;;;;;;18.23;11.23;;;;;;;5.14;100.00;95987.22;1015825;29;20020;-60
2021/03/05 00:33:47;;;;;;;17.55;11.25;;;;;;;5.14;100.00;95993.34;1015617;29;20397;-58
2021/03/05 00:34:18;;;;;;;19.65;12.15;;;;;;;5.16;100.00;95990.56;1015674;29;20026;-59
2021/03/05 00:34:49;;;;;;;19.17;12.05;;;;;;;5.15;100.00;95989.72;1023692;29;20027;-60
2021/03/05 00:35:19;;;;;;;22.27;13.02;;;;;;;5.13;100.00;95985.59;1019673;29;20103;-59
2021/03/05 00:35:50;;;;;;;19.45;12.73;;;;;;;5.14;100.00;95989.84;1023701;29;20030;-58
2021/03/05 00:36:21;;;;;;;23.77;13.48;;;;;;;5.15;100.00;95994.16;1019594;29;20083;-60
2021/03/05 00:36:52;;;;;;;19.77;12.18;;;;;;;5.14;100.00;95990.72;1019703;29;20151;-57
2021/03/05 00:37:22;;;;;;;20.35;12.38;;;;;;;5.14;100.00;95993.34;1019632;29;20357;-59
2021/03/05 00:37:53;;;;;;;18.70;11.88;;;;;;;5.14;100.00;95989.84;1027639;28;20571;-59
2021/03/05 00:38:24;;;;;;;20.17;12.55;;;;;;;5.11;100.00;95991.00;1023488;29;20031;-58
2021/03/05 00:38:55;;;;;;;20.65;12.32;;;;;;;5.10;100.00;95989.31;1019601;29;20027;-59
2021/03/05 00:39:26;;;;;;;20.48;12.30;;;;;;;5.12;100.00;95983.91;1019670;29;20032;-59
2021/03/05 00:39:56;;;;;;;18.60;11.77;;;;;;;5.13;100.00;95981.13;1015775;29;20032;-58
2021/03/05 00:40:27;;;;;;;20.20;12.60;;;;;;;5.13;100.00;95982.94;1011691;29;20116;-60
2021/03/05 00:40:58;;;;;;;21.45;12.50;;;;;;;5.12;100.00;95986.53;1011862;29;20032;-58
2021/03/05 00:41:28;;;;;;;21.55;12.70;;;;;;;5.13;100.00;95982.94;1011877;29;20390;-59
2021/03/05 00:41:59;;;;;;;22.80;13.25;;;;;;;5.14;100.00;95981.97;1015761;29;20023;-59
2021/03/05 00:42:30;;;;;;;21.50;12.82;;;;;;;5.13;100.00;95983.78;1019590;29;20035;-59
2021/03/05 00:43:01;;;;;;;21.42;12.70;;;;;;;5.14;100.00;95977.56;1019681;29;20035;-58
2021/03/05 00:43:32;;;;;;;21.10;13.25;;;;;;;5.15;100.00;95983.63;1019614;29;20020;-59
2021/03/05 00:44:03;;;;;;;21.00;12.70;;;;;;;5.16;100.00;95974.78;1016496;29;20090;-58
2021/03/05 00:44:34;;;;;;;18.92;12.10;;;;;;;5.15;100.00;95965.22;1016430;29;20033;-59
2021/03/05 00:45:05;;;;;;;18.30;12.23;;;;;;;5.14;100.00;95977.56;1020462;29;20107;-58
2021/03/05 00:45:36;;;;;;;19.27;12.07;;;;;;;5.17;100.00;95981.69;1024412;29;20022;-59
2021/03/05 00:46:07;;;;;;;21.10;11.82;;;;;;;5.10;100.00;95973.53;1024376;29;20026;-58
2021/03/05 00:46:37;;;;;;;21.60;11.18;;;;;;;5.12;100.00;95983.91;1016348;29;20024;-59
2021/03/05 00:47:08;;;;;;;19.83;11.38;;;;;;;5.13;100.00;95980.31;1028389;28;20019;-56
2021/03/05 00:47:39;;;;;;;18.65;10.60;;;;;;;5.13;100.00;95980.31;1020443;29;20039;-59
2021/03/05 00:48:10;;;;;;;14.40;10.70;;;;;;;5.12;100.00;95976.88;1016506;29;20016;-58
2021/03/05 00:48:41;;;;;;;19.75;11.73;;;;;;;5.13;100.00;95982.94;1016451;29;20039;-58
2021/03/05 00:49:11;;;;;;;16.70;10.85;;;;;;;5.13;100.00;95988.22;1020404;29;20107;-60
2021/03/05 00:49:42;;;;;;;18.15;11.20;;;;;;;5.09;100.00;95982.41;1020452;29;20020;-57
2021/03/05 00:50:14;;;;;;;18.70;10.93;;;;;;;5.08;100.00;95978.91;1020550;29;20036;-58
2021/03/05 00:50:45;;;;;;;20.25;11.50;;;;;;;5.10;100.00;95982.28;1020415;29;20486;-58
2021/03/05 00:51:15;;;;;;;18.80;11.75;;;;;;;5.08;100.00;95976.28;1020451;29;20020;-60
2021/03/05 00:51:46;;;;;;;19.55;11.23;;;;;;;5.12;100.00;95981.28;1020457;29;20022;-59
2021/03/05 00:52:16;;;;;;;23.00;11.40;;;;;;;5.09;100.00;95980.59;1020416;29;20471;-58
2021/03/05 00:52:50;;;;;;;17.13;11.20;;;;;;;5.11;100.00;95985.72;1024325;29;20566;-59
2021/03/05 00:53:20;;;;;;;19.23;10.77;;;;;;;5.10;100.00;95984.91;1028315;28;20026;-58
2021/03/05 00:53:51;;;;;;;20.67;11.48;;;;;;;5.13;100.00;95982.94;1028185;28;20117;-58
2021/03/05 00:54:22;;;;;;;16.40;11.10;;;;;;;5.10;100.00;95984.06;1024311;29;20019;-58
2021/03/05 00:54:53;;;;;;;15.68;10.25;;;;;;;5.09;100.00;95990.31;1024331;29;20107;-58
2021/03/05 00:55:23;;;;;;;14.98;9.38;;;;;;;5.08;100.00;95981.56;1020411;29;20114;-58
2021/03/05 00:55:55;;;;;;;18.13;11.82;;;;;;;5.06;100.00;95988.75;1020468;29;20020;-59
2021/03/05 00:56:26;;;;;;;14.63;8.75;;;;;;;5.05;100.00;95989.75;1020332;29;20023;-59
2021/03/05 00:56:57;;;;;;;13.90;8.45;;;;;;;5.07;100.00;95989.63;1020331;29;20070;-58
2021/03/05 00:57:28;;;;;;;14.88;7.32;;;;;;;5.07;100.00;95992.25;1020323;29;20024;-60
2021/03/05 00:57:59;;;;;;;14.80;8.45;;;;;;;5.06;100.00;95986.13;1020452;29;20031;-59
2021/03/05 00:58:30;;;;;;;16.00;8.25;;;;;;;5.06;100.00;95986.13;1020343;29;20023;-59
2021/03/05 00:59:01;;;;;;;12.20;8.05;;;;;;;5.03;100.00;95999.59;1020319;29;20110;-58
2021/03/05 00:59:31;;;;;;;11.73;7.55;;;;;;;5.04;100.00;95990.72;1012568;29;20075;-58
2021/03/05 01:00:11;;;;;;;12.65;7.78;;;;;;;5.04;100.00;95998.59;1024399;29;20015;-59
2021/03/05 01:00:42;;;;;;;12.73;7.75;;;;;;;5.02;100.00;95995.28;1032401;28;20018;-59
2021/03/05 01:01:13;;;;;;;13.18;7.15;;;;;;;5.01;100.00;95990.16;1020458;29;20028;-57
2021/03/05 01:01:44;;;;;;;13.35;7.45;;;;;;;4.99;100.00;95998.19;1024314;29;20118;-58
2021/03/05 01:02:15;;;;;;;10.88;7.25;;;;;;;5.02;100.00;95991.84;1032359;28;20109;-57
2021/03/05 01:02:46;;;;;;;10.45;6.93;;;;;;;5.00;100.00;95986.72;1028735;28;20023;-58
2021/03/05 01:03:17;;;;;;;12.23;7.15;;;;;;;5.01;100.00;95998.88;1026403;29;20066;-58
2021/03/05 01:03:47;;;;;;;10.00;6.88;;;;;;;4.99;100.00;95987.66;1030292;28;20608;-57
2021/03/05 01:04:18;;;;;;;11.18;6.68;;;;;;;5.01;100.00;95988.34;1014822;29;20112;-60
2021/03/05 01:04:49;;;;;;;10.15;6.15;;;;;;;4.99;100.00;95989.47;1018432;29;20018;-59
2021/03/05 01:05:20;;;;;;;9.20;6.22;;;;;;;4.99;100.00;95989.47;1018526;29;20031;-57
2021/03/05 01:05:51;;;;;;;10.98;6.45;;;;;;;4.97;100.00;95994.88;1026313;29;20469;-59
2021/03/05 01:06:22;;;;;;;9.13;5.88;;;;;;;4.97;100.00;95994.88;1018884;29;20020;-58
2021/03/05 01:06:52;;;;;;;15.38;6.80;;;;;;;4.98;100.00;95995.69;1018694;29;20443;-58
2021/03/05 01:07:23;;;;;;;9.80;5.45;;;;;;;4.97;100.00;95988.78;1022710;29;20112;-58
2021/03/05 01:07:54;;;;;;;9.80;5.85;;;;;;;4.86;100.00;95979.22;1022386;29;20028;-58
2021/03/05 01:08:25;;;;;;;10.77;6.60;;;;;;;4.94;100.00;95995.16;1014485;29;20047;-59
2021/03/05 01:08:56;;;;;;;10.65;6.63;;;;;;;4.94;100.00;95986.44;1025179;29;20404;-57
2021/03/05 01:09:26;;;;;;;8.90;5.75;;;;;;;4.93;100.00;95988.25;1016335;29;20020;-58
2021/03/05 01:09:57;;;;;;;10.15;5.68;;;;;;;4.91;100.00;95987.53;1020376;29;20034;-56
2021/03/05 01:10:28;;;;;;;11.63;6.85;;;;;;;4.92;100.00;95991.84;1016468;29;20024;-59
2021/03/05 01:10:59;;;;;;;9.70;5.75;;;;;;;4.93;100.00;95992.66;1024311;29;20066;-58
2021/03/05 01:11:30;;;;;;;8.48;5.43;;;;;;;4.92;100.00;95989.22;1028211;28;20023;-58
2021/03/05 01:12:00;;;;;;;8.45;5.57;;;;;;;4.90;100.00;95999.03;1016438;29;20096;-60
2021/03/05 01:12:31;;;;;;;8.27;5.80;;;;;;;4.89;100.00;95995.59;1016405;29;20028;-58
2021/03/05 01:13:02;;;;;;;8.65;5.40;;;;;;;4.88;100.00;95988.66;1020282;29;20552;-59
2021/03/05 01:13:33;;;;;;;11.85;5.78;;;;;;;4.89;100.00;95994.75;1028042;28;20050;-58
2021/03/05 01:14:03;;;;;;;8.40;5.88;;;;;;;4.88;100.00;95995.72;1028173;28;20027;-59
2021/03/05 01:14:34;;;;;;;9.82;5.55;;;;;;;4.88;100.00;95995.72;1028297;28;20026;-58
2021/03/05 01:15:06;;;;;;;11.25;6.07;;;;;;;4.87;100.00;95988.78;1024279;28;20023;-59
2021/03/05 01:15:37;;;;;;;8.18;5.38;;;;;;;4.86;100.00;95997.66;1028229;28;20058;-59
2021/03/05 01:16:08;;;;;;;9.90;5.90;;;;;;;4.83;100.00;95993.50;1016369;29;20086;-58
2021/03/05 01:16:39;;;;;;;9.60;6.20;;;;;;;4.86;100.00;95995.00;1012470;29;20431;-58
2021/03/05 01:17:10;;;;;;;8.18;5.80;;;;;;;4.86;100.00;95995.00;1020312;29;20023;-55
2021/03/05 01:17:41;;;;;;;12.80;6.75;;;;;;;4.86;100.00;95997.66;1020244;29;20024;-58
2021/03/05 01:18:13;;;;;;;9.27;5.65;;;;;;;4.88;100.00;95995.72;1020256;29;20509;-56
2021/03/05 01:18:43;;;;;;;8.73;5.95;;;;;;;4.87;100.00;96001.94;1020250;29;20118;-57
2021/03/05 01:19:14;;;;;;;9.27;5.80;;;;;;;4.83;100.00;96008.47;1024265;29;20023;-58
2021/03/05 01:19:45;;;;;;;8.23;5.30;;;;;;;4.84;100.00;95999.59;1020218;29;20517;-58
2021/03/05 01:20:22;;;;;;;8.20;5.03;;;;;;;4.82;100.00;96002.34;1020251;29;20054;-56
2021/03/05 01:20:53;;;;;;;7.60;4.93;;;;;;;4.83;100.00;96000.56;1020388;29;20066;-57
2021/03/05 01:21:24;;;;;;;8.13;5.20;;;;;;;4.85;100.00;96003.91;1024260;29;20037;-57
2021/03/05 01:21:54;;;;;;;8.25;4.72;;;;;;;4.83;100.00;95998.78;1028133;28;20031;-59
2021/03/05 01:22:25;;;;;;;8.15;5.45;;;;;;;4.83;100.00;96005.84;1024140;29;20027;-58
2021/03/05 01:22:56;;;;;;;7.40;5.25;;;;;;;4.82;100.00;96001.53;1024197;29;20039;-58
2021/03/05 01:23:27;;;;;;;8.68;5.72;;;;;;;4.82;100.00;96007.63;1020303;29;20019;-57
2021/03/05 01:23:57;;;;;;;9.85;4.88;;;;;;;4.82;100.00;96006.78;1023996;29;20023;-59
2021/03/05 01:24:28;;;;;;;11.05;5.80;;;;;;;4.82;100.00;96006.78;1020248;29;20023;-58
2021/03/05 01:24:59;;;;;;;9.43;5.38;;;;;;;4.83;100.00;96003.22;1024377;28;20033;-58
2021/03/05 01:25:30;;;;;;;10.25;5.45;;;;;;;4.84;100.00;95999.59;1012387;29;20032;-58
2021/03/05 01:26:02;;;;;;;8.13;5.18;;;;;;;4.83;100.00;96005.84;1016265;29;20470;-59
2021/03/05 01:26:32;;;;;;;8.50;5.13;;;;;;;4.82;100.00;96007.63;1016275;29;20067;-58
2021/03/05 01:27:04;;;;;;;8.32;5.30;;;;;;;4.86;100.00;96005.53;1020223;29;20038;-58
2021/03/05 01:27:35;;;;;;;9.27;5.97;;;;;;;4.81;100.00;95998.09;1020239;29;20038;-58
2021/03/05 01:28:06;;;;;;;8.57;5.25;;;;;;;4.84;100.00;96007.47;1024246;29;20394;-59
2021/03/05 01:28:40;;;;;;;8.40;4.90;;;;;;;4.83;100.00;96006.66;1028311;28;20138;-57
2021/03/05 01:29:11;;;;;;;8.63;5.68;;;;;;;4.73;100.00;95984.78;1024163;29;20027;-53
2021/03/05 01:29:42;;;;;;;9.75;5.40;;;;;;;4.83;100.00;96005.84;1024261;29;20455;-58
2021/03/05 01:30:14;;;;;;;9.80;5.85;;;;;;;4.83;100.00;96003.22;1020100;29;20039;-58
2021/03/05 01:30:45;;;;;;;10.40;5.43;;;;;;;4.78;100.00;96006.25;1024283;29;20530;-58
2021/03/05 01:31:16;;;;;;;10.20;5.78;;;;;;;4.79;100.00;96004.44;1020324;29;20049;-57
2021/03/05 01:31:46;;;;;;;9.95;5.32;;;;;;;4.79;100.00;96001.81;1020284;29;20024;-58
2021/03/05 01:32:18;;;;;;;8.18;5.50;;;;;;;4.78;100.00;95995.72;1020153;29;20035;-59
2021/03/05 01:32:50;;;;;;;6.68;4.55;;;;;;;4.79;100.00;95999.16;1020279;29;20462;-58
2021/03/05 01:33:21;;;;;;;8.32;5.10;;;;;;;4.78;100.00;96000.16;1012335;29;20028;-58
2021/03/05 01:33:51;;;;;;;10.60;5.72;;;;;;;4.77;100.00;95998.50;1016146;29;20042;-58
2021/03/05 01:34:22;;;;;;;7.88;5.57;;;;;;;4.78;100.00;96000.97;1016206;29;20457;-58
2021/03/05 01:34:53;;;;;;;10.30;5.45;;;;;;;4.46;100.00;95957.38;1032238;28;20045;-58
2021/03/05 01:35:25;;;;;;;8.45;5.38;;;;;;;4.73;100.00;96001.38;1020254;29;20520;-57
2021/03/05 01:35:56;;;;;;;9.65;5.40;;;;;;;4.73;100.00;95993.50;1028209;28;20022;-58
2021/03/05 01:36:27;;;;;;;7.80;5.25;;;;;;;4.73;100.00;95998.75;1028060;28;20022;-56
2021/03/05 01:36:57;;;;;;;10.07;5.85;;;;;;;4.74;100.00;95996.97;1012423;29;20131;-58
2021/03/05 01:37:28;;;;;;;8.90;5.60;;;;;;;4.72;100.00;95989.22;1024062;29;20070;-57
2021/03/05 01:37:59;;;;;;;9.15;5.20;;;;;;;4.77;100.00;95993.22;1032222;28;20120;-58
2021/03/05 01:38:29;;;;;;;9.80;5.97;;;;;;;4.76;100.00;96000.28;1016228;29;20111;-58
2021/03/05 01:39:00;;;;;;;9.63;5.55;;;;;;;4.76;100.00;96000.28;1020216;29;20046;-58
2021/03/05 01:39:31;;;;;;;9.38;5.57;;;;;;;4.76;100.00;96002.09;1016256;29;20031;-57
2021/03/05 01:40:04;;;;;;;10.50;5.95;;;;;;;4.77;100.00;95999.31;1024128;29;20023;-59
2021/03/05 01:40:37;;;;;;;8.38;5.80;;;;;;;4.79;100.00;95996.53;1028087;28;20030;-57
2021/03/05 01:41:08;;;;;;;12.52;5.70;;;;;;;4.78;100.00;96000.16;1020282;29;20524;-58
2021/03/05 01:41:39;;;;;;;7.22;4.88;;;;;;;4.78;100.00;95995.72;1024187;29;20166;-58
2021/03/05 01:42:10;;;;;;;8.48;5.28;;;;;;;4.79;100.00;95996.53;1032283;28;20018;-55
2021/03/05 01:42:41;;;;;;;8.52;5.25;;;;;;;4.80;100.00;95995.59;1024022;29;20019;-58
2021/03/05 01:43:14;;;;;;;7.90;5.30;;;;;;;4.80;100.00;95998.22;1020159;29;20019;-57
2021/03/05 01:43:45;;;;;;;8.68;5.80;;;;;;;4.81;100.00;96000.72;1016072;29;20454;-57
2021/03/05 01:44:15;;;;;;;9.18;5.63;;;;;;;4.83;100.00;96000.56;1020211;29;20027;-58
2021/03/05 01:44:47;;;;;;;9.20;5.40;;;;;;;4.84;100.00;95995.19;1027968;28;20500;-58
2021/03/05 01:45:21;;;;;;;10.02;5.93;;;;;;;4.83;100.00;96011.09;1028191;28;20260;-57
2021/03/05 01:45:51;;;;;;;8.43;5.47;;;;;;;4.83;100.00;95998.78;1024075;29;20030;-57
2021/03/05 01:46:22;;;;;;;12.00;6.07;;;;;;;4.84;100.00;95996.97;1016243;29;20031;-58
2021/03/05 01:46:53;;;;;;;10.25;5.80;;;;;;;4.83;100.00;95998.78;1024000;29;20026;-55
2021/03/05 01:47:24;;;;;;;9.15;5.80;;;;;;;4.84;100.00;96000.44;1028102;28;20023;-56
2021/03/05 01:47:57;;;;;;;12.68;6.32;;;;;;;4.84;100.00;95999.59;1032209;28;20018;-58
2021/03/05 01:48:28;;;;;;;9.80;6.13;;;;;;;4.86;100.00;95992.38;1024078;28;20489;-58
2021/03/05 01:48:59;;;;;;;8.13;5.63;;;;;;;4.86;100.00;95987.13;1024005;29;20027;-58
2021/03/05 01:49:29;;;;;;;9.43;5.68;;;;;;;4.87;100.00;95988.78;1020157;28;20462;-58
2021/03/05 01:50:00;;;;;;;9.73;5.57;;;;;;;4.88;100.00;95988.66;1020196;29;20028;-58
2021/03/05 01:50:33;;;;;;;9.50;4.95;;;;;;;4.89;100.00;95986.84;1020172;29;20099;-58
2021/03/05 01:51:16;;;;;;;11.27;5.40;;;;;;;4.88;100.00;95996.56;1024019;29;20031;-59
2021/03/05 01:51:47;;;;;;;9.20;5.88;;;;;;;4.88;100.00;95996.56;1024135;29;20027;-57
2021/03/05 01:52:18;;;;;;;10.38;5.45;;;;;;;4.88;100.00;95990.47;1020292;29;20206;-58
2021/03/05 01:52:52;;;;;;;9.23;5.32;;;;;;;4.86;100.00;95992.38;1020150;29;20019;-57
2021/03/05 01:53:23;;;;;;;8.32;5.40;;;;;;;4.86;100.00;95992.38;1024045;29;20031;-57
2021/03/05 01:53:54;;;;;;;8.55;5.47;;;;;;;4.81;100.00;95989.38;1020011;29;20112;-57
2021/03/05 01:54:25;;;;;;;9.15;5.78;;;;;;;4.86;100.00;95997.66;1028144;28;20018;-56
2021/03/05 01:54:55;;;;;;;7.90;5.35;;;;;;;4.88;100.00;96001.00;1024143;29;20063;-57
2021/03/05 01:55:26;;;;;;;9.05;5.78;;;;;;;4.88;100.00;95993.91;1015433;29;20082;-57
2021/03/05 01:55:57;;;;;;;8.10;5.28;;;;;;;4.90;100.00;95999.03;1027969;28;20169;-58
2021/03/05 01:56:38;;;;;;;9.15;5.53;;;;;;;4.88;100.00;96001.81;1020132;29;20031;-59
2021/03/05 01:57:09;;;;;;;8.57;5.47;;;;;;;4.90;100.00;95999.88;1016136;29;20051;-58
2021/03/05 01:57:39;;;;;;;8.25;5.63;;;;;;;4.89;100.00;96006.13;1028013;28;20126;-57
2021/03/05 01:58:10;;;;;;;10.02;6.22;;;;;;;4.88;100.00;95993.91;1020238;29;20298;-55
2021/03/05 01:58:41;;;;;;;10.07;5.93;;;;;;;4.88;100.00;96001.00;1016215;29;20470;-58
2021/03/05 01:59:13;;;;;;;10.38;6.20;;;;;;;4.89;100.00;95997.38;1016218;29;20107;-57
2021/03/05 01:59:43;;;;;;;7.93;5.35;;;;;;;4.88;100.00;95999.19;1016118;29;20092;-57
2021/03/05 02:00:17;;;;;;;10.50;5.88;;;;;;;4.90;100.00;96002.50;1016230;29;20099;-57
2021/03/05 02:00:52;;;;;;;9.35;5.78;;;;;;;4.91;100.00;95996.28;1016336;29;20024;-57
2021/03/05 02:01:23;;;;;;;9.30;5.95;;;;;;;4.90;100.00;95999.03;1028012;28;20018;-58
2021/03/05 02:02:05;;;;;;;11.73;6.50;;;;;;;4.88;100.00;96001.81;1029317;28;20026;-57
2021/03/05 02:02:36;;;;;;;10.63;6.47;;;;;;;4.89;100.00;95994.75;1029843;28;20066;-58
2021/03/05 02:03:08;;;;;;;10.18;6.50;;;;;;;4.89;100.00;95992.09;1032097;28;20101;-58
2021/03/05 02:03:39;;;;;;;9.32;5.63;;;;;;;4.91;100.00;95995.44;1027751;28;20025;-58
2021/03/05 02:04:11;;;;;;;9.77;6.05;;;;;;;4.91;100.00;95996.28;1024095;29;20023;-53
2021/03/05 02:04:42;;;;;;;8.52;5.82;;;;;;;4.91;100.00;95993.66;1028098;28;20022;-57
2021/03/05 02:05:13;;;;;;;10.15;6.32;;;;;;;4.93;100.00;95992.66;1032053;28;20499;-58
2021/03/05 02:05:44;;;;;;;10.15;6.90;;;;;;;4.90;100.00;95994.59;1024105;29;20027;-56
2021/03/05 02:06:15;;;;;;;10.00;6.50;;;;;;;4.94;100.00;95994.34;1032051;28;20460;-59
2021/03/05 02:06:46;;;;;;;9.75;7.03;;;;;;;4.95;100.00;95985.47;1028003;28;20554;-57
2021/03/05 02:07:16;;;;;;;10.40;6.20;;;;;;;4.95;100.00;95990.75;1020076;29;20034;-58
2021/03/05 02:07:47;;;;;;;11.05;6.93;;;;;;;4.94;100.00;95992.53;1024048;28;20020;-58
2021/03/05 02:08:18;;;;;;;13.10;6.78;;;;;;;4.96;100.00;95993.22;1028034;28;20484;-57
2021/03/05 02:08:49;;;;;;;12.57;6.68;;;;;;;4.96;100.00;95987.94;1024128;29;20496;-57
2021/03/05 02:09:19;;;;;;;11.75;7.13;;;;;;;4.94;100.00;95983.81;1012222;29;20044;-57
2021/03/05 02:09:50;;;;;;;11.85;6.82;;;;;;;4.93;100.00;95988.25;1020025;29;20023;-58
2021/03/05 02:10:21;;;;;;;11.40;7.07;;;;;;;4.93;100.00;95988.25;1020157;29;20501;-58
2021/03/05 02:10:52;;;;;;;11.57;7.30;;;;;;;4.97;100.00;95983.53;1024021;29;20460;-57
2021/03/05 02:11:24;;;;;;;12.15;7.45;;;;;;;4.93;100.00;95988.25;1024094;29;20396;-57
2021/03/05 02:11:54;;;;;;;10.93;7.45;;;;;;;4.90;100.00;95975.38;1024092;29;20026;-57
2021/03/05 02:12:25;;;;;;;10.43;7.25;;;;;;;4.90;100.00;95981.44;1023965;29;20471;-55
2021/03/05 02:12:56;;;;;;;11.02;7.07;;;;;;;4.94;100.00;95978.53;1028111;28;20113;-55
2021/03/05 02:13:27;;;;;;;10.38;7.35;;;;;;;4.94;100.00;95982.00;1036128;28;20475;-57
2021/03/05 02:13:58;;;;;;;13.15;7.82;;;;;;;4.95;100.00;95975.78;1019870;29;20318;-57
2021/03/05 02:14:29;;;;;;;14.25;8.27;;;;;;;4.92;100.00;95981.31;1020131;29;20020;-57
2021/03/05 02:14:59;;;;;;;13.55;7.47;;;;;;;4.93;100.00;95979.50;1024087;29;20136;-58
2021/03/05 02:15:31;;;;;;;11.60;7.63;;;;;;;4.95;100.00;95978.41;1024022;28;20027;-57
2021/03/05 02:16:04;;;;;;;12.90;7.45;;;;;;;4.96;100.00;95980.06;1023994;29;20067;-58
2021/03/05 02:16:46;;;;;;;14.73;8.10;;;;;;;4.97;100.00;95979.09;1019986;29;20055;-57
2021/03/05 02:17:31;;;;;;;11.18;7.47;;;;;;;4.96;100.00;95976.59;1023921;29;20023;-59
2021/03/05 02:18:12;;;;;;;13.07;7.75;;;;;;;4.95;100.00;95978.41;1028028;28;20451;-57
2021/03/05 02:18:52;;;;;;;13.70;7.32;;;;;;;4.96;100.00;95987.94;1028073;28;20127;-57
2021/03/05 02:19:43;;;;;;;15.10;8.70;;;;;;;4.98;100.00;95985.19;1028058;28;20023;-58
2021/03/05 02:20:24;;;;;;;12.02;7.45;;;;;;;4.99;100.00;95982.41;1029339;28;20026;-58
2021/03/05 02:20:57;;;;;;;12.57;7.45;;;;;;;4.99;100.00;95971.88;1024240;28;20041;-59
2021/03/05 02:21:38;;;;;;;16.58;7.88;;;;;;;4.99;100.00;95978.97;1016179;29;20083;-59
2021/03/05 02:22:21;;;;;;;13.35;8.43;;;;;;;4.96;100.00;95985.31;1016049;29;20116;-57
2021/03/05 02:23:04;;;;;;;13.90;7.60;;;;;;;4.85;100.00;95973.16;1024008;29;20244;-58
2021/03/05 02:23:46;;;;;;;13.43;8.57;;;;;;;4.94;100.00;95984.63;1031758;28;20423;-58
2021/03/05 02:24:36;;;;;;;13.00;8.40;;;;;;;4.95;100.00;95978.41;1024005;28;20478;-59
2021/03/05 02:25:18;;;;;;;13.15;8.55;;;;;;;4.96;100.00;95977.41;1016267;29;20039;-57
2021/03/05 02:25:58;;;;;;;13.90;8.20;;;;;;;4.94;100.00;95983.81;1024043;29;20019;-58
2021/03/05 02:26:58;;;;;;;13.57;8.20;;;;;;;4.94;100.00;95986.44;1023774;29;20043;-58
2021/03/05 02:27:46;;;;;;;14.18;7.82;;;;;;;4.93;100.00;95977.72;1023905;29;20027;-58
2021/03/05 02:28:36;;;;;;;15.43;9.13;;;;;;;4.94;100.00;95981.19;1022267;29;20429;-55
2021/03/05 02:29:22;;;;;;;16.98;9.05;;;;;;;4.96;100.00;95981.84;1024059;29;20390;-59
2021/03/05 02:30:03;;;;;;;16.10;9.00;;;;;;;4.94;100.00;95976.72;1024869;28;20031;-58